ADDS METAR Data INFO
IDs: Format: Raw Decoded Include TAF

Data at: 0054 UTC 22 Oct 2017

KGNV 212353Z AUTO 06005KT 10SM CLR 23/18 A3020 RMK AO2 SLP224 T02280178 10294 20228 52009
KGNV 212253Z AUTO 07008KT 10SM CLR 24/17 A3019 RMK AO2 SLP221 T02390172
KGNV 212153Z AUTO 08006KT 10SM FEW055 26/17 A3018 RMK AO2 SLP217 T02560167
KGNV 212053Z AUTO 06011G16KT 10SM CLR 27/16 A3017 RMK AO2 SLP214 T02720156 56006
KGNV 211953Z AUTO 07014G18KT 10SM FEW055 27/16 A3017 RMK AO2 SLP215 T02720156
KGNV 211853Z 09014G19KT 10SM FEW050 BKN060 27/15 A3018 RMK AO2 SLP217 T02720150
KGNV 211753Z 08012G21KT 10SM FEW049 SCT060 29/17 A3019 RMK AO2 SLP219 T02890167 10289 20189 58009
KGNV 211653Z 06013G17KT 10SM FEW055 28/16 A3021 RMK AO2 SLP227 T02780161
KGNV 211553Z 09009KT 10SM CLR 28/17 A3022 RMK AO2 SLP231 T02780172
KGNV 211453Z 06013G16KT 10SM CLR 26/17 A3021 RMK AO2 SLP229 T02610172 50010
KGNV 211353Z 06007KT 10SM CLR 24/19 A3022 RMK AO2 SLP232 T02390189
KGNV 211253Z 04007KT 10SM CLR 21/19 A3020 RMK AO2 SLP225 T02110189
KGNV 211153Z 03004KT 10SM CLR 19/18 A3019 RMK AO2 SLP219 T01890178 10189 20167 52013
KGNV 211053Z 00000KT 10SM FEW050 18/17 A3017 RMK AO2 SLP216 T01780172
KGNV 210953Z AUTO 03004KT 10SM CLR 19/18 A3016 RMK AO2 SLP210 T01890183
KGNV 210853Z AUTO 02004KT 10SM CLR 19/18 A3015 RMK AO2 SLP205 T01890178 55005
KGNV 210753Z AUTO 00000KT 10SM CLR 18/17 A3014 RMK AO2 SLP204 T01780172
KGNV 210653Z AUTO 35003KT 10SM CLR 18/17 A3015 RMK AO2 SLP207 T01830172
KGNV 210553Z AUTO 36004KT 10SM CLR 18/18 A3016 RMK AO2 SLP210 T01830178 10217 20172 58005
KGNV 210453Z AUTO 00000KT 10SM CLR 18/17 A3018 RMK AO2 SLP216 T01780172 402940172
KGNV 210353Z AUTO 00000KT 10SM CLR 18/17 A3018 RMK AO2 SLP217 T01830167
KGNV 210253Z AUTO 05005KT 10SM CLR 20/18 A3018 RMK AO2 SLP216 T02000178 51009
KGNV 210153Z 07003KT 10SM BKN039 BKN048 22/18 A3017 RMK AO2 SLP214 T02170178
KGNV 210053Z 06005KT 10SM FEW038 21/17 A3016 RMK AO2 SLP211 T02060172
KGNV 202353Z 06006KT 10SM CLR 21/17 A3015 RMK AO2 SLP208 T02110167 10294 20211 53008
KGNV 202253Z 09005KT 10SM CLR 24/17 A3014 RMK AO2 SLP204 T02390167
KGNV 202153Z 09012G17KT 10SM FEW041 26/17 A3013 RMK AO2 SLP201 T02610167
KGNV 202053Z 06012KT 10SM CLR 28/18 A3013 RMK AO2 SLP198 T02830183 56010
KGNV 201953Z 08011KT 10SM CLR 29/18 A3013 RMK AO2 SLP199 T02890178
KGNV 201853Z 07011G18KT 10SM FEW043 29/18 A3014 RMK AO2 SLP202 T02940178
KGNV 201753Z 10015G20KT 10SM FEW044 29/18 A3015 RMK AO2 SLP208 T02890178 10294 20183 58020
KGNV 201653Z 08009KT 10SM FEW042 27/18 A3019 RMK AO2 SLP220 T02720183
KGNV 201553Z 06011KT 10SM CLR 27/19 A3020 RMK AO2 SLP225 T02720189
KGNV 201453Z 05009KT 10SM CLR 26/19 A3022 RMK AO2 SLP229 T02610194 51008
KGNV 201353Z 04007KT 10SM CLR 23/20 A3022 RMK AO2 SLP230 T02330200